sensor_id;sensor_type;location;lat;lon;timestamp;P1;durP1;ratioP1;P2;durP2;ratioP2
34960;SDS011;30789;52.030;7.110;2022-08-30T00:01:09;2.70;;;2.40;;
34960;SDS011;30789;52.030;7.110;2022-08-30T00:03:36;5.10;;;2.95;;
34960;SDS011;30789;52.030;7.110;2022-08-30T00:06:03;3.45;;;2.92;;
34960;SDS011;30789;52.030;7.110;2022-08-30T00:08:30;3.33;;;2.53;;
34960;SDS011;30789;52.030;7.110;2022-08-30T00:10:57;3.72;;;2.70;;
34960;SDS011;30789;52.030;7.110;2022-08-30T00:13:23;5.53;;;2.47;;
34960;SDS011;30789;52.030;7.110;2022-08-30T00:15:50;2.70;;;2.47;;
34960;SDS011;30789;52.030;7.110;2022-08-30T00:18:18;3.28;;;2.45;;
34960;SDS011;30789;52.030;7.110;2022-08-30T00:20:45;3.33;;;2.85;;
34960;SDS011;30789;52.030;7.110;2022-08-30T00:23:12;3.08;;;2.78;;
34960;SDS011;30789;52.030;7.110;2022-08-30T00:25:39;2.65;;;2.45;;
34960;SDS011;30789;52.030;7.110;2022-08-30T00:28:05;3.33;;;2.42;;
34960;SDS011;30789;52.030;7.110;2022-08-30T00:30:31;2.28;;;2.08;;
34960;SDS011;30789;52.030;7.110;2022-08-30T00:32:58;3.20;;;2.50;;
34960;SDS011;30789;52.030;7.110;2022-08-30T00:35:26;2.92;;;2.55;;
34960;SDS011;30789;52.030;7.110;2022-08-30T00:37:52;3.13;;;2.40;;
34960;SDS011;30789;52.030;7.110;2022-08-30T00:40:19;4.65;;;2.80;;
34960;SDS011;30789;52.030;7.110;2022-08-30T00:42:46;2.65;;;2.45;;
34960;SDS011;30789;52.030;7.110;2022-08-30T00:45:13;4.18;;;2.97;;
34960;SDS011;30789;52.030;7.110;2022-08-30T00:47:40;3.53;;;2.80;;
34960;SDS011;30789;52.030;7.110;2022-08-30T00:50:07;2.92;;;2.60;;
34960;SDS011;30789;52.030;7.110;2022-08-30T00:52:36;3.13;;;2.80;;
34960;SDS011;30789;52.030;7.110;2022-08-30T00:55:05;3.03;;;2.72;;
34960;SDS011;30789;52.030;7.110;2022-08-30T00:57:32;5.90;;;3.78;;
34960;SDS011;30789;52.030;7.110;2022-08-30T01:00:00;3.97;;;3.30;;
34960;SDS011;30789;52.030;7.110;2022-08-30T01:02:28;3.30;;;3.00;;
34960;SDS011;30789;52.030;7.110;2022-08-30T01:04:57;4.00;;;3.60;;
34960;SDS011;30789;52.030;7.110;2022-08-30T01:07:24;3.67;;;3.28;;
34960;SDS011;30789;52.030;7.110;2022-08-30T01:09:51;5.95;;;3.50;;
34960;SDS011;30789;52.030;7.110;2022-08-30T01:12:18;4.18;;;3.78;;
34960;SDS011;30789;52.030;7.110;2022-08-30T01:14:44;5.00;;;3.80;;
34960;SDS011;30789;52.030;7.110;2022-08-30T01:17:10;4.20;;;3.53;;
34960;SDS011;30789;52.030;7.110;2022-08-30T01:19:39;4.82;;;3.90;;
34960;SDS011;30789;52.030;7.110;2022-08-30T01:22:09;5.97;;;3.95;;
34960;SDS011;30789;52.030;7.110;2022-08-30T01:24:38;6.18;;;3.88;;
34960;SDS011;30789;52.030;7.110;2022-08-30T01:27:04;4.35;;;3.95;;
34960;SDS011;30789;52.030;7.110;2022-08-30T01:29:30;5.30;;;3.90;;
34960;SDS011;30789;52.030;7.110;2022-08-30T01:31:57;5.30;;;4.10;;
34960;SDS011;30789;52.030;7.110;2022-08-30T01:34:23;5.85;;;3.75;;
34960;SDS011;30789;52.030;7.110;2022-08-30T01:36:50;4.25;;;3.78;;
34960;SDS011;30789;52.030;7.110;2022-08-30T01:39:16;5.25;;;4.10;;
34960;SDS011;30789;52.030;7.110;2022-08-30T01:41:44;4.90;;;3.88;;
34960;SDS011;30789;52.030;7.110;2022-08-30T01:44:11;4.40;;;3.95;;
34960;SDS011;30789;52.030;7.110;2022-08-30T01:46:39;5.43;;;3.95;;
34960;SDS011;30789;52.030;7.110;2022-08-30T01:49:07;6.72;;;4.63;;
34960;SDS011;30789;52.030;7.110;2022-08-30T01:51:34;7.78;;;4.43;;
34960;SDS011;30789;52.030;7.110;2022-08-30T01:54:01;4.90;;;4.43;;
34960;SDS011;30789;52.030;7.110;2022-08-30T01:56:28;4.30;;;3.70;;
34960;SDS011;30789;52.030;7.110;2022-08-30T01:58:56;3.83;;;3.35;;
34960;SDS011;30789;52.030;7.110;2022-08-30T02:01:23;4.28;;;3.88;;
34960;SDS011;30789;52.030;7.110;2022-08-30T02:03:50;3.80;;;3.38;;
34960;SDS011;30789;52.030;7.110;2022-08-30T02:06:19;4.50;;;3.40;;
34960;SDS011;30789;52.030;7.110;2022-08-30T02:08:46;3.58;;;3.22;;
34960;SDS011;30789;52.030;7.110;2022-08-30T02:11:13;5.78;;;3.50;;
34960;SDS011;30789;52.030;7.110;2022-08-30T02:13:40;7.65;;;3.60;;
34960;SDS011;30789;52.030;7.110;2022-08-30T02:16:09;3.72;;;3.42;;
34960;SDS011;30789;52.030;7.110;2022-08-30T02:18:36;5.28;;;3.60;;
34960;SDS011;30789;52.030;7.110;2022-08-30T02:21:03;3.53;;;3.22;;
34960;SDS011;30789;52.030;7.110;2022-08-30T02:23:30;3.88;;;3.45;;
34960;SDS011;30789;52.030;7.110;2022-08-30T02:25:56;4.60;;;3.22;;
34960;SDS011;30789;52.030;7.110;2022-08-30T02:28:22;4.68;;;3.38;;
34960;SDS011;30789;52.030;7.110;2022-08-30T02:30:50;4.53;;;2.97;;
34960;SDS011;30789;52.030;7.110;2022-08-30T02:33:18;3.63;;;2.70;;
34960;SDS011;30789;52.030;7.110;2022-08-30T02:35:44;4.30;;;2.55;;
34960;SDS011;30789;52.030;7.110;2022-08-30T02:38:11;3.78;;;2.55;;
34960;SDS011;30789;52.030;7.110;2022-08-30T02:40:37;3.20;;;2.65;;
34960;SDS011;30789;52.030;7.110;2022-08-30T02:43:03;3.20;;;2.20;;
34960;SDS011;30789;52.030;7.110;2022-08-30T02:45:30;6.65;;;2.33;;
34960;SDS011;30789;52.030;7.110;2022-08-30T02:47:56;2.63;;;2.42;;
34960;SDS011;30789;52.030;7.110;2022-08-30T02:50:24;3.90;;;2.72;;
34960;SDS011;30789;52.030;7.110;2022-08-30T02:52:50;5.22;;;2.65;;
34960;SDS011;30789;52.030;7.110;2022-08-30T02:55:17;4.35;;;2.75;;
34960;SDS011;30789;52.030;7.110;2022-08-30T02:57:43;2.55;;;2.33;;
34960;SDS011;30789;52.030;7.110;2022-08-30T03:00:11;2.97;;;2.30;;
34960;SDS011;30789;52.030;7.110;2022-08-30T03:02:38;6.30;;;2.53;;
34960;SDS011;30789;52.030;7.110;2022-08-30T03:05:05;3.05;;;2.60;;
34960;SDS011;30789;52.030;7.110;2022-08-30T03:07:33;2.50;;;2.30;;
34960;SDS011;30789;52.030;7.110;2022-08-30T03:09:59;4.60;;;2.60;;
34960;SDS011;30789;52.030;7.110;2022-08-30T03:12:25;2.95;;;2.22;;
34960;SDS011;30789;52.030;7.110;2022-08-30T03:14:52;2.78;;;2.30;;
34960;SDS011;30789;52.030;7.110;2022-08-30T03:17:18;4.32;;;2.10;;
34960;SDS011;30789;52.030;7.110;2022-08-30T03:19:44;3.58;;;2.17;;
34960;SDS011;30789;52.030;7.110;2022-08-30T03:22:11;2.25;;;2.05;;
34960;SDS011;30789;52.030;7.110;2022-08-30T03:24:39;2.22;;;2.03;;
34960;SDS011;30789;52.030;7.110;2022-08-30T03:27:05;2.35;;;2.08;;
34960;SDS011;30789;52.030;7.110;2022-08-30T03:29:32;4.20;;;2.45;;
34960;SDS011;30789;52.030;7.110;2022-08-30T03:31:58;4.72;;;2.33;;
34960;SDS011;30789;52.030;7.110;2022-08-30T03:34:25;6.30;;;2.50;;
34960;SDS011;30789;52.030;7.110;2022-08-30T03:36:52;2.70;;;2.35;;
34960;SDS011;30789;52.030;7.110;2022-08-30T03:39:20;3.58;;;2.35;;
34960;SDS011;30789;52.030;7.110;2022-08-30T03:41:48;2.50;;;2.30;;
34960;SDS011;30789;52.030;7.110;2022-08-30T03:44:14;2.30;;;2.10;;
34960;SDS011;30789;52.030;7.110;2022-08-30T03:46:41;2.42;;;2.22;;
34960;SDS011;30789;52.030;7.110;2022-08-30T03:49:07;2.40;;;2.20;;
34960;SDS011;30789;52.030;7.110;2022-08-30T03:51:33;3.92;;;2.80;;
34960;SDS011;30789;52.030;7.110;2022-08-30T03:54:00;3.95;;;2.72;;
34960;SDS011;30789;52.030;7.110;2022-08-30T03:56:26;3.85;;;2.95;;
34960;SDS011;30789;52.030;7.110;2022-08-30T03:58:54;3.50;;;2.78;;
34960;SDS011;30789;52.030;7.110;2022-08-30T04:01:21;3.22;;;2.83;;
34960;SDS011;30789;52.030;7.110;2022-08-30T04:03:47;3.28;;;2.85;;
34960;SDS011;30789;52.030;7.110;2022-08-30T04:06:13;4.28;;;2.65;;
34960;SDS011;30789;52.030;7.110;2022-08-30T04:08:39;3.17;;;2.80;;
34960;SDS011;30789;52.030;7.110;2022-08-30T04:11:07;3.50;;;2.92;;
34960;SDS011;30789;52.030;7.110;2022-08-30T04:13:33;2.80;;;2.55;;
34960;SDS011;30789;52.030;7.110;2022-08-30T04:16:01;2.72;;;2.47;;
34960;SDS011;30789;52.030;7.110;2022-08-30T04:18:27;3.03;;;2.70;;
34960;SDS011;30789;52.030;7.110;2022-08-30T04:20:54;3.08;;;2.65;;
34960;SDS011;30789;52.030;7.110;2022-08-30T04:23:20;3.20;;;2.75;;
34960;SDS011;30789;52.030;7.110;2022-08-30T04:25:46;2.78;;;2.50;;
34960;SDS011;30789;52.030;7.110;2022-08-30T04:28:13;3.42;;;2.50;;
34960;SDS011;30789;52.030;7.110;2022-08-30T04:30:40;2.97;;;2.78;;
34960;SDS011;30789;52.030;7.110;2022-08-30T04:33:08;3.45;;;2.65;;
34960;SDS011;30789;52.030;7.110;2022-08-30T04:35:35;4.30;;;3.17;;
34960;SDS011;30789;52.030;7.110;2022-08-30T04:38:01;5.25;;;3.00;;
34960;SDS011;30789;52.030;7.110;2022-08-30T04:40:28;4.95;;;3.05;;
34960;SDS011;30789;52.030;7.110;2022-08-30T04:42:54;4.28;;;3.60;;
34960;SDS011;30789;52.030;7.110;2022-08-30T04:45:21;4.05;;;3.03;;
34960;SDS011;30789;52.030;7.110;2022-08-30T04:47:47;3.88;;;3.00;;
34960;SDS011;30789;52.030;7.110;2022-08-30T04:50:16;3.35;;;3.03;;
34960;SDS011;30789;52.030;7.110;2022-08-30T04:52:43;4.80;;;2.78;;
34960;SDS011;30789;52.030;7.110;2022-08-30T04:55:10;3.38;;;2.97;;
34960;SDS011;30789;52.030;7.110;2022-08-30T04:57:37;3.30;;;2.78;;
34960;SDS011;30789;52.030;7.110;2022-08-30T05:00:05;2.88;;;2.58;;
34960;SDS011;30789;52.030;7.110;2022-08-30T05:02:32;3.55;;;3.20;;
34960;SDS011;30789;52.030;7.110;2022-08-30T05:04:58;3.90;;;2.95;;
34960;SDS011;30789;52.030;7.110;2022-08-30T05:07:45;3.40;;;3.03;;
34960;SDS011;30789;52.030;7.110;2022-08-30T05:10:11;4.97;;;2.90;;
34960;SDS011;30789;52.030;7.110;2022-08-30T05:12:37;2.88;;;2.45;;
34960;SDS011;30789;52.030;7.110;2022-08-30T05:15:04;2.55;;;2.33;;
34960;SDS011;30789;52.030;7.110;2022-08-30T05:17:30;4.72;;;3.20;;
34960;SDS011;30789;52.030;7.110;2022-08-30T05:19:57;2.85;;;2.47;;
34960;SDS011;30789;52.030;7.110;2022-08-30T05:22:23;3.47;;;2.50;;
34960;SDS011;30789;52.030;7.110;2022-08-30T05:24:50;3.28;;;2.97;;
34960;SDS011;30789;52.030;7.110;2022-08-30T05:27:17;4.53;;;2.85;;
34960;SDS011;30789;52.030;7.110;2022-08-30T05:29:43;3.83;;;2.67;;
34960;SDS011;30789;52.030;7.110;2022-08-30T05:32:09;3.03;;;2.58;;
34960;SDS011;30789;52.030;7.110;2022-08-30T05:34:36;4.15;;;2.97;;
34960;SDS011;30789;52.030;7.110;2022-08-30T05:37:02;3.38;;;2.80;;
34960;SDS011;30789;52.030;7.110;2022-08-30T05:39:28;2.78;;;2.58;;
34960;SDS011;30789;52.030;7.110;2022-08-30T05:41:56;3.45;;;2.55;;
34960;SDS011;30789;52.030;7.110;2022-08-30T05:44:23;5.00;;;2.45;;
34960;SDS011;30789;52.030;7.110;2022-08-30T05:46:49;4.47;;;2.72;;
34960;SDS011;30789;52.030;7.110;2022-08-30T05:49:16;2.53;;;2.33;;
34960;SDS011;30789;52.030;7.110;2022-08-30T05:51:42;3.03;;;2.45;;
34960;SDS011;30789;52.030;7.110;2022-08-30T05:54:09;2.50;;;2.30;;
34960;SDS011;30789;52.030;7.110;2022-08-30T05:56:37;3.00;;;2.70;;
34960;SDS011;30789;52.030;7.110;2022-08-30T05:59:05;5.95;;;2.33;;
34960;SDS011;30789;52.030;7.110;2022-08-30T06:01:33;2.88;;;2.17;;
34960;SDS011;30789;52.030;7.110;2022-08-30T06:04:00;3.25;;;2.28;;
34960;SDS011;30789;52.030;7.110;2022-08-30T06:06:27;2.85;;;2.40;;
34960;SDS011;30789;52.030;7.110;2022-08-30T06:08:54;2.60;;;2.40;;
34960;SDS011;30789;52.030;7.110;2022-08-30T06:11:21;3.40;;;2.53;;
34960;SDS011;30789;52.030;7.110;2022-08-30T06:13:48;2.92;;;2.00;;
34960;SDS011;30789;52.030;7.110;2022-08-30T06:16:17;2.15;;;1.95;;
34960;SDS011;30789;52.030;7.110;2022-08-30T06:18:43;2.90;;;1.98;;
34960;SDS011;30789;52.030;7.110;2022-08-30T06:21:14;3.67;;;1.77;;
34960;SDS011;30789;52.030;7.110;2022-08-30T06:23:40;4.25;;;2.28;;
34960;SDS011;30789;52.030;7.110;2022-08-30T06:26:06;2.95;;;2.13;;
34960;SDS011;30789;52.030;7.110;2022-08-30T06:28:34;1.92;;;1.48;;
34960;SDS011;30789;52.030;7.110;2022-08-30T06:31:00;3.05;;;2.20;;
34960;SDS011;30789;52.030;7.110;2022-08-30T06:33:28;2.60;;;2.40;;
34960;SDS011;30789;52.030;7.110;2022-08-30T06:35:54;2.75;;;2.03;;
34960;SDS011;30789;52.030;7.110;2022-08-30T06:38:26;1.88;;;1.75;;
34960;SDS011;30789;52.030;7.110;2022-08-30T06:40:52;2.67;;;1.90;;
34960;SDS011;30789;52.030;7.110;2022-08-30T06:43:19;2.25;;;1.63;;
34960;SDS011;30789;52.030;7.110;2022-08-30T06:45:45;2.25;;;1.33;;
34960;SDS011;30789;52.030;7.110;2022-08-30T06:48:11;2.63;;;1.40;;
34960;SDS011;30789;52.030;7.110;2022-08-30T06:50:39;5.13;;;1.67;;
34960;SDS011;30789;52.030;7.110;2022-08-30T06:53:06;1.85;;;1.15;;
34960;SDS011;30789;52.030;7.110;2022-08-30T06:55:32;6.88;;;1.48;;
34960;SDS011;30789;52.030;7.110;2022-08-30T06:57:58;7.32;;;2.28;;
34960;SDS011;30789;52.030;7.110;2022-08-30T07:00:25;4.40;;;1.63;;
34960;SDS011;30789;52.030;7.110;2022-08-30T07:02:52;2.90;;;1.10;;
34960;SDS011;30789;52.030;7.110;2022-08-30T07:05:18;2.25;;;1.45;;
34960;SDS011;30789;52.030;7.110;2022-08-30T07:07:48;3.45;;;1.42;;
34960;SDS011;30789;52.030;7.110;2022-08-30T07:10:17;3.63;;;1.67;;
34960;SDS011;30789;52.030;7.110;2022-08-30T07:12:43;4.38;;;1.40;;
34960;SDS011;30789;52.030;7.110;2022-08-30T07:15:09;3.92;;;1.42;;
34960;SDS011;30789;52.030;7.110;2022-08-30T07:17:36;2.05;;;1.27;;
34960;SDS011;30789;52.030;7.110;2022-08-30T07:20:19;1.95;;;1.20;;
34960;SDS011;30789;52.030;7.110;2022-08-30T07:22:47;1.25;;;1.10;;
34960;SDS011;30789;52.030;7.110;2022-08-30T07:25:14;2.35;;;1.33;;
34960;SDS011;30789;52.030;7.110;2022-08-30T07:27:40;3.13;;;1.27;;
34960;SDS011;30789;52.030;7.110;2022-08-30T07:30:07;3.95;;;1.08;;
34960;SDS011;30789;52.030;7.110;2022-08-30T07:32:34;1.15;;;0.77;;
34960;SDS011;30789;52.030;7.110;2022-08-30T07:35:02;4.43;;;1.50;;
34960;SDS011;30789;52.030;7.110;2022-08-30T07:37:28;2.15;;;1.10;;
34960;SDS011;30789;52.030;7.110;2022-08-30T07:39:56;2.58;;;1.15;;
34960;SDS011;30789;52.030;7.110;2022-08-30T07:42:23;2.10;;;1.55;;
34960;SDS011;30789;52.030;7.110;2022-08-30T07:44:49;2.55;;;1.05;;
34960;SDS011;30789;52.030;7.110;2022-08-30T07:47:15;6.93;;;1.17;;
34960;SDS011;30789;52.030;7.110;2022-08-30T07:49:41;3.15;;;0.80;;
34960;SDS011;30789;52.030;7.110;2022-08-30T07:52:08;1.55;;;0.75;;
34960;SDS011;30789;52.030;7.110;2022-08-30T07:54:34;1.20;;;0.80;;
34960;SDS011;30789;52.030;7.110;2022-08-30T07:57:02;3.80;;;0.80;;
34960;SDS011;30789;52.030;7.110;2022-08-30T07:59:28;1.88;;;1.00;;
34960;SDS011;30789;52.030;7.110;2022-08-30T08:01:54;1.02;;;0.93;;
34960;SDS011;30789;52.030;7.110;2022-08-30T08:04:21;5.53;;;1.02;;
34960;SDS011;30789;52.030;7.110;2022-08-30T08:06:47;1.00;;;0.98;;
34960;SDS011;30789;52.030;7.110;2022-08-30T08:09:13;1.77;;;0.88;;
34960;SDS011;30789;52.030;7.110;2022-08-30T08:11:40;2.90;;;1.10;;
34960;SDS011;30789;52.030;7.110;2022-08-30T08:14:07;1.70;;;1.00;;
34960;SDS011;30789;52.030;7.110;2022-08-30T08:16:34;3.00;;;1.30;;
34960;SDS011;30789;52.030;7.110;2022-08-30T08:19:01;0.90;;;0.80;;
34960;SDS011;30789;52.030;7.110;2022-08-30T08:21:32;1.55;;;0.88;;
34960;SDS011;30789;52.030;7.110;2022-08-30T08:23:59;6.70;;;0.70;;
34960;SDS011;30789;52.030;7.110;2022-08-30T08:26:25;2.22;;;1.00;;
34960;SDS011;30789;52.030;7.110;2022-08-30T08:28:51;1.38;;;0.60;;
34960;SDS011;30789;52.030;7.110;2022-08-30T08:31:19;2.22;;;0.60;;
34960;SDS011;30789;52.030;7.110;2022-08-30T08:33:46;0.60;;;0.40;;
34960;SDS011;30789;52.030;7.110;2022-08-30T08:36:13;2.22;;;0.90;;
34960;SDS011;30789;52.030;7.110;2022-08-30T08:38:39;0.82;;;0.73;;
34960;SDS011;30789;52.030;7.110;2022-08-30T08:41:07;1.58;;;0.90;;
34960;SDS011;30789;52.030;7.110;2022-08-30T08:43:36;3.65;;;1.20;;
34960;SDS011;30789;52.030;7.110;2022-08-30T08:46:05;1.20;;;0.55;;
34960;SDS011;30789;52.030;7.110;2022-08-30T08:48:39;0.88;;;0.63;;
34960;SDS011;30789;52.030;7.110;2022-08-30T08:53:52;1.48;;;0.65;;
34960;SDS011;30789;52.030;7.110;2022-08-30T08:56:21;1.45;;;0.60;;
34960;SDS011;30789;52.030;7.110;2022-08-30T08:58:48;2.55;;;0.70;;
34960;SDS011;30789;52.030;7.110;2022-08-30T09:01:16;5.28;;;1.25;;
34960;SDS011;30789;52.030;7.110;2022-08-30T09:03:45;0.63;;;0.40;;
34960;SDS011;30789;52.030;7.110;2022-08-30T09:06:20;4.07;;;0.77;;
34960;SDS011;30789;52.030;7.110;2022-08-30T09:08:47;3.35;;;0.73;;
34960;SDS011;30789;52.030;7.110;2022-08-30T09:11:16;0.68;;;0.60;;
34960;SDS011;30789;52.030;7.110;2022-08-30T09:13:45;1.40;;;0.68;;
34960;SDS011;30789;52.030;7.110;2022-08-30T09:16:11;2.63;;;0.80;;
34960;SDS011;30789;52.030;7.110;2022-08-30T09:18:59;1.10;;;0.77;;
34960;SDS011;30789;52.030;7.110;2022-08-30T09:21:25;0.60;;;0.50;;
34960;SDS011;30789;52.030;7.110;2022-08-30T09:23:54;2.90;;;0.70;;
34960;SDS011;30789;52.030;7.110;2022-08-30T09:26:26;1.33;;;0.50;;
34960;SDS011;30789;52.030;7.110;2022-08-30T09:28:53;16.13;;;2.10;;
34960;SDS011;30789;52.030;7.110;2022-08-30T09:31:20;5.53;;;1.10;;
34960;SDS011;30789;52.030;7.110;2022-08-30T09:33:52;5.45;;;0.88;;
34960;SDS011;30789;52.030;7.110;2022-08-30T09:36:21;4.68;;;0.90;;
34960;SDS011;30789;52.030;7.110;2022-08-30T09:38:55;2.83;;;0.87;;
34960;SDS011;30789;52.030;7.110;2022-08-30T09:41:26;5.43;;;0.80;;
34960;SDS011;30789;52.030;7.110;2022-08-30T09:44:02;1.63;;;0.90;;
34960;SDS011;30789;52.030;7.110;2022-08-30T09:46:29;4.88;;;1.10;;
34960;SDS011;30789;52.030;7.110;2022-08-30T09:48:55;2.40;;;0.88;;
34960;SDS011;30789;52.030;7.110;2022-08-30T09:51:32;4.57;;;0.60;;
34960;SDS011;30789;52.030;7.110;2022-08-30T09:54:05;1.10;;;0.90;;
34960;SDS011;30789;52.030;7.110;2022-08-30T09:56:36;2.80;;;0.60;;
34960;SDS011;30789;52.030;7.110;2022-08-30T09:59:06;1.30;;;0.73;;
34960;SDS011;30789;52.030;7.110;2022-08-30T10:01:36;0.77;;;0.52;;
34960;SDS011;30789;52.030;7.110;2022-08-30T10:04:05;1.60;;;0.70;;
34960;SDS011;30789;52.030;7.110;2022-08-30T10:06:40;1.77;;;0.77;;
34960;SDS011;30789;52.030;7.110;2022-08-30T10:11:35;1.73;;;0.55;;
34960;SDS011;30789;52.030;7.110;2022-08-30T10:16:52;1.73;;;0.57;;
34960;SDS011;30789;52.030;7.110;2022-08-30T10:19:23;1.60;;;0.88;;
34960;SDS011;30789;52.030;7.110;2022-08-30T10:21:55;1.65;;;0.80;;
34960;SDS011;30789;52.030;7.110;2022-08-30T10:24:23;2.40;;;0.55;;
34960;SDS011;30789;52.030;7.110;2022-08-30T10:26:51;1.33;;;0.50;;
34960;SDS011;30789;52.030;7.110;2022-08-30T10:29:21;2.40;;;0.55;;
34960;SDS011;30789;52.030;7.110;2022-08-30T10:31:48;0.90;;;0.63;;
34960;SDS011;30789;52.030;7.110;2022-08-30T10:34:16;0.75;;;0.50;;
34960;SDS011;30789;52.030;7.110;2022-08-30T10:36:45;2.13;;;0.90;;
34960;SDS011;30789;52.030;7.110;2022-08-30T10:39:15;4.90;;;0.70;;
34960;SDS011;30789;52.030;7.110;2022-08-30T10:41:45;1.58;;;0.85;;
34960;SDS011;30789;52.030;7.110;2022-08-30T10:44:16;0.60;;;0.50;;
34960;SDS011;30789;52.030;7.110;2022-08-30T10:46:52;1.60;;;0.75;;
34960;SDS011;30789;52.030;7.110;2022-08-30T10:49:22;0.90;;;0.65;;
34960;SDS011;30789;52.030;7.110;2022-08-30T10:51:51;1.85;;;0.80;;
34960;SDS011;30789;52.030;7.110;2022-08-30T10:54:22;1.05;;;0.70;;
34960;SDS011;30789;52.030;7.110;2022-08-30T10:56:50;0.80;;;0.50;;
34960;SDS011;30789;52.030;7.110;2022-08-30T10:59:18;1.65;;;0.70;;
34960;SDS011;30789;52.030;7.110;2022-08-30T11:01:52;1.55;;;0.82;;
34960;SDS011;30789;52.030;7.110;2022-08-30T11:04:30;3.30;;;0.90;;
34960;SDS011;30789;52.030;7.110;2022-08-30T11:07:01;1.10;;;0.65;;
34960;SDS011;30789;52.030;7.110;2022-08-30T11:15:15;7.63;;;1.40;;
34960;SDS011;30789;52.030;7.110;2022-08-30T11:17:44;2.72;;;1.00;;
34960;SDS011;30789;52.030;7.110;2022-08-30T11:20:20;1.67;;;0.70;;
34960;SDS011;30789;52.030;7.110;2022-08-30T11:27:54;0.70;;;0.60;;
34960;SDS011;30789;52.030;7.110;2022-08-30T11:35:51;1.58;;;0.60;;
34960;SDS011;30789;52.030;7.110;2022-08-30T11:38:19;1.58;;;0.85;;
34960;SDS011;30789;52.030;7.110;2022-08-30T11:41:07;2.00;;;0.80;;
34960;SDS011;30789;52.030;7.110;2022-08-30T11:43:52;3.20;;;0.80;;
34960;SDS011;30789;52.030;7.110;2022-08-30T11:46:32;1.08;;;0.60;;
34960;SDS011;30789;52.030;7.110;2022-08-30T11:49:02;2.20;;;0.85;;
34960;SDS011;30789;52.030;7.110;2022-08-30T11:54:18;1.77;;;0.80;;
34960;SDS011;30789;52.030;7.110;2022-08-30T11:56:52;3.58;;;0.80;;
34960;SDS011;30789;52.030;7.110;2022-08-30T11:59:22;2.25;;;0.63;;
34960;SDS011;30789;52.030;7.110;2022-08-30T12:01:51;1.40;;;0.70;;
34960;SDS011;30789;52.030;7.110;2022-08-30T12:04:24;2.60;;;0.98;;
34960;SDS011;30789;52.030;7.110;2022-08-30T12:06:52;3.28;;;0.90;;
34960;SDS011;30789;52.030;7.110;2022-08-30T12:12:07;5.25;;;1.00;;
34960;SDS011;30789;52.030;7.110;2022-08-30T12:14:45;3.22;;;0.80;;
34960;SDS011;30789;52.030;7.110;2022-08-30T12:20:19;1.70;;;0.70;;
34960;SDS011;30789;52.030;7.110;2022-08-30T12:22:46;2.83;;;0.95;;
34960;SDS011;30789;52.030;7.110;2022-08-30T12:25:14;2.40;;;0.57;;
34960;SDS011;30789;52.030;7.110;2022-08-30T12:27:43;3.28;;;1.00;;
34960;SDS011;30789;52.030;7.110;2022-08-30T12:30:10;1.50;;;0.90;;
34960;SDS011;30789;52.030;7.110;2022-08-30T12:32:41;9.35;;;1.88;;
34960;SDS011;30789;52.030;7.110;2022-08-30T12:35:15;3.88;;;0.90;;
34960;SDS011;30789;52.030;7.110;2022-08-30T12:37:42;2.03;;;0.80;;
34960;SDS011;30789;52.030;7.110;2022-08-30T12:40:10;2.90;;;0.90;;
34960;SDS011;30789;52.030;7.110;2022-08-30T12:42:38;1.45;;;0.75;;
34960;SDS011;30789;52.030;7.110;2022-08-30T12:45:09;6.53;;;1.10;;
34960;SDS011;30789;52.030;7.110;2022-08-30T12:47:36;5.40;;;0.70;;
34960;SDS011;30789;52.030;7.110;2022-08-30T12:50:08;1.95;;;0.80;;
34960;SDS011;30789;52.030;7.110;2022-08-30T12:52:35;1.83;;;0.93;;
34960;SDS011;30789;52.030;7.110;2022-08-30T12:55:05;7.60;;;1.13;;
34960;SDS011;30789;52.030;7.110;2022-08-30T12:57:36;2.60;;;0.88;;
34960;SDS011;30789;52.030;7.110;2022-08-30T13:00:03;3.05;;;1.00;;
34960;SDS011;30789;52.030;7.110;2022-08-30T13:02:42;5.93;;;0.98;;
34960;SDS011;30789;52.030;7.110;2022-08-30T13:07:50;3.53;;;0.82;;
34960;SDS011;30789;52.030;7.110;2022-08-30T13:10:16;1.45;;;0.80;;
34960;SDS011;30789;52.030;7.110;2022-08-30T13:12:56;7.13;;;1.08;;
34960;SDS011;30789;52.030;7.110;2022-08-30T13:15:26;2.53;;;0.77;;
34960;SDS011;30789;52.030;7.110;2022-08-30T13:20:35;1.60;;;0.70;;
34960;SDS011;30789;52.030;7.110;2022-08-30T13:23:04;1.58;;;0.80;;
34960;SDS011;30789;52.030;7.110;2022-08-30T13:25:30;2.08;;;0.73;;
34960;SDS011;30789;52.030;7.110;2022-08-30T13:27:57;5.15;;;1.10;;
34960;SDS011;30789;52.030;7.110;2022-08-30T13:30:24;3.42;;;0.80;;
34960;SDS011;30789;52.030;7.110;2022-08-30T13:32:50;4.18;;;0.93;;
34960;SDS011;30789;52.030;7.110;2022-08-30T13:35:17;0.75;;;0.70;;
34960;SDS011;30789;52.030;7.110;2022-08-30T13:37:44;1.38;;;0.65;;
34960;SDS011;30789;52.030;7.110;2022-08-30T13:40:12;2.22;;;0.77;;
34960;SDS011;30789;52.030;7.110;2022-08-30T13:42:39;3.58;;;1.05;;
34960;SDS011;30789;52.030;7.110;2022-08-30T13:45:07;3.05;;;0.85;;
34960;SDS011;30789;52.030;7.110;2022-08-30T13:47:33;3.03;;;0.90;;
34960;SDS011;30789;52.030;7.110;2022-08-30T13:50:00;0.88;;;0.70;;
34960;SDS011;30789;52.030;7.110;2022-08-30T13:52:26;1.98;;;0.80;;
34960;SDS011;30789;52.030;7.110;2022-08-30T13:54:55;2.80;;;0.80;;
34960;SDS011;30789;52.030;7.110;2022-08-30T13:57:23;0.93;;;0.70;;
34960;SDS011;30789;52.030;7.110;2022-08-30T13:59:49;7.18;;;1.10;;
34960;SDS011;30789;52.030;7.110;2022-08-30T14:02:16;7.00;;;1.30;;
34960;SDS011;30789;52.030;7.110;2022-08-30T14:04:42;4.97;;;0.95;;
34960;SDS011;30789;52.030;7.110;2022-08-30T14:07:08;5.40;;;0.73;;
34960;SDS011;30789;52.030;7.110;2022-08-30T14:09:35;2.25;;;0.82;;
34960;SDS011;30789;52.030;7.110;2022-08-30T14:12:03;1.02;;;0.63;;
34960;SDS011;30789;52.030;7.110;2022-08-30T14:14:29;1.13;;;0.70;;
34960;SDS011;30789;52.030;7.110;2022-08-30T14:16:55;1.30;;;0.82;;
34960;SDS011;30789;52.030;7.110;2022-08-30T14:19:22;3.00;;;0.90;;
34960;SDS011;30789;52.030;7.110;2022-08-30T14:21:48;3.70;;;1.05;;
34960;SDS011;30789;52.030;7.110;2022-08-30T14:24:15;1.00;;;0.60;;
34960;SDS011;30789;52.030;7.110;2022-08-30T14:26:44;3.30;;;0.88;;
34960;SDS011;30789;52.030;7.110;2022-08-30T14:29:13;2.15;;;0.75;;
34960;SDS011;30789;52.030;7.110;2022-08-30T14:31:40;1.48;;;0.60;;
34960;SDS011;30789;52.030;7.110;2022-08-30T14:34:07;0.77;;;0.68;;
34960;SDS011;30789;52.030;7.110;2022-08-30T14:36:34;2.08;;;0.82;;
34960;SDS011;30789;52.030;7.110;2022-08-30T14:39:01;1.00;;;0.52;;
34960;SDS011;30789;52.030;7.110;2022-08-30T14:41:27;2.55;;;0.75;;
34960;SDS011;30789;52.030;7.110;2022-08-30T14:43:54;1.02;;;0.65;;
34960;SDS011;30789;52.030;7.110;2022-08-30T14:46:22;0.77;;;0.65;;
34960;SDS011;30789;52.030;7.110;2022-08-30T14:48:50;1.95;;;0.75;;
34960;SDS011;30789;52.030;7.110;2022-08-30T14:51:17;2.65;;;0.75;;
34960;SDS011;30789;52.030;7.110;2022-08-30T14:53:44;1.33;;;0.85;;
34960;SDS011;30789;52.030;7.110;2022-08-30T14:56:13;14.20;;;4.13;;
34960;SDS011;30789;52.030;7.110;2022-08-30T14:58:40;1.88;;;0.95;;
34960;SDS011;30789;52.030;7.110;2022-08-30T15:01:07;3.00;;;0.60;;
34960;SDS011;30789;52.030;7.110;2022-08-30T15:03:35;6.80;;;1.35;;
34960;SDS011;30789;52.030;7.110;2022-08-30T15:06:01;3.97;;;0.90;;
34960;SDS011;30789;52.030;7.110;2022-08-30T15:08:27;7.50;;;1.20;;
34960;SDS011;30789;52.030;7.110;2022-08-30T15:10:54;14.45;;;1.58;;
34960;SDS011;30789;52.030;7.110;2022-08-30T15:13:20;2.20;;;0.50;;
34960;SDS011;30789;52.030;7.110;2022-08-30T15:15:46;1.77;;;0.65;;
34960;SDS011;30789;52.030;7.110;2022-08-30T15:18:13;4.10;;;0.98;;
34960;SDS011;30789;52.030;7.110;2022-08-30T15:20:44;1.52;;;0.80;;
34960;SDS011;30789;52.030;7.110;2022-08-30T15:25:36;1.30;;;0.73;;
34960;SDS011;30789;52.030;7.110;2022-08-30T15:28:03;1.35;;;0.80;;
34960;SDS011;30789;52.030;7.110;2022-08-30T15:30:29;2.70;;;0.82;;
34960;SDS011;30789;52.030;7.110;2022-08-30T15:32:55;4.80;;;0.82;;